Time;durP1;ratioP1;P1;durP2;ratioP2;P2;SDS_P1;SDS_P2;PMS_P1;PMS_P2;Temp;Humidity;BMP_temperature;BMP_pressure;BME280_temperature;BME280_humidity;BME280_pressure;Samples;Min_cycle;Max_cycle;Signal;HPM_P1;HPM_P2
2020/12/03 00:00:47;;;;;;;21.52;11.27;;;3.80;93.00;;;;;;4937901;28;20046;-85
2020/12/03 00:03:28;;;;;;;20.23;13.38;;;3.80;93.00;;;;;;4935708;28;20041;-85
2020/12/03 00:06:15;;;;;;;25.15;13.07;;;3.80;93.00;;;;;;4932434;28;20480;-85
2020/12/03 00:08:41;;;;;;;19.67;10.23;;;3.80;92.90;;;;;;4949118;28;20030;-85
2020/12/03 00:11:07;;;;;;;19.30;9.05;;;3.80;93.00;;;;;;4928057;28;20042;-85
2020/12/03 00:13:33;;;;;;;25.55;13.10;;;3.80;93.00;;;;;;4910794;28;20035;-85
2020/12/03 00:15:59;;;;;;;24.52;14.15;;;3.80;93.00;;;;;;4935126;28;20075;-85
2020/12/03 00:18:26;;;;;;;26.90;15.80;;;3.80;92.90;;;;;;4915940;28;20039;-84
2020/12/03 00:20:52;;;;;;;22.30;13.43;;;3.80;92.90;;;;;;4913006;28;20121;-84
2020/12/03 00:23:17;;;;;;;25.67;14.85;;;3.70;93.00;;;;;;4931032;28;20313;-85
2020/12/03 00:25:43;;;;;;;20.05;11.15;;;3.80;93.00;;;;;;4938378;28;20042;-84
2020/12/03 00:28:09;;;;;;;24.42;15.20;;;3.80;93.00;;;;;;4934650;28;20042;-84
2020/12/03 00:30:35;;;;;;;20.88;11.38;;;3.80;93.00;;;;;;4909224;28;20027;-84
2020/12/03 00:33:00;;;;;;;25.35;15.40;;;3.90;93.10;;;;;;4909668;28;20023;-84
2020/12/03 00:35:27;;;;;;;27.98;16.33;;;3.80;93.00;;;;;;4929398;28;20046;-84
2020/12/03 00:37:52;;;;;;;26.02;14.10;;;3.80;93.00;;;;;;4911349;28;20042;-84
2020/12/03 00:40:18;;;;;;;28.00;13.43;;;3.80;93.00;;;;;;4914135;28;20026;-84
2020/12/03 00:42:44;;;;;;;14.38;8.40;;;3.80;93.00;;;;;;4937295;28;20049;-84
2020/12/03 00:45:10;;;;;;;25.63;15.10;;;3.80;93.00;;;;;;4930861;28;20411;-84
2020/12/03 00:47:37;;;;;;;23.08;12.98;;;3.80;93.00;;;;;;4941111;28;20045;-85
2020/12/03 00:50:03;;;;;;;26.63;14.27;;;3.80;93.00;;;;;;4931190;28;20134;-84
2020/12/03 00:52:28;;;;;;;26.38;15.18;;;3.80;93.00;;;;;;4938882;28;20035;-84
2020/12/03 00:54:54;;;;;;;25.15;14.32;;;3.80;93.00;;;;;;4944517;28;20090;-84
2020/12/03 00:57:19;;;;;;;23.85;14.38;;;3.80;93.00;;;;;;4915228;28;20029;-84
2020/12/03 00:59:46;;;;;;;33.47;18.45;;;3.80;93.10;;;;;;4936740;28;20043;-84
2020/12/03 01:02:13;;;;;;;25.80;16.08;;;3.80;93.00;;;;;;4905187;28;20031;-84
2020/12/03 01:04:38;;;;;;;22.42;11.70;;;3.80;93.00;;;;;;4929304;28;20395;-84
2020/12/03 01:07:04;;;;;;;26.55;16.38;;;3.80;93.00;;;;;;4934509;28;20014;-84
2020/12/03 01:09:30;;;;;;;32.20;20.05;;;3.80;93.00;;;;;;4959162;28;20026;-84
2020/12/03 01:11:56;;;;;;;25.90;13.90;;;3.80;93.00;;;;;;4864294;28;20091;-84
2020/12/03 01:14:21;;;;;;;22.13;12.43;;;3.80;93.00;;;;;;4922137;28;20497;-84
2020/12/03 01:16:47;;;;;;;27.90;15.95;;;3.80;93.00;;;;;;4908861;28;20119;-84
2020/12/03 01:19:13;;;;;;;26.85;16.15;;;3.80;93.00;;;;;;4951199;28;20541;-84
2020/12/03 01:21:38;;;;;;;24.92;13.60;;;3.80;93.00;;;;;;4942610;28;20499;-84
2020/12/03 01:24:04;;;;;;;25.45;14.20;;;3.80;93.00;;;;;;4911316;28;20067;-84
2020/12/03 01:26:30;;;;;;;23.58;14.07;;;3.80;93.00;;;;;;4940880;28;20092;-84
2020/12/03 01:28:55;;;;;;;25.98;14.95;;;3.90;93.00;;;;;;4915670;28;20035;-84
2020/12/03 01:31:21;;;;;;;33.85;18.75;;;3.80;93.00;;;;;;4930661;28;20048;-84
2020/12/03 01:33:46;;;;;;;27.15;16.20;;;3.80;93.10;;;;;;4950906;28;20050;-84
2020/12/03 01:36:13;;;;;;;29.95;18.48;;;3.80;93.10;;;;;;4929941;28;20070;-84
2020/12/03 01:38:38;;;;;;;24.20;12.70;;;3.80;93.10;;;;;;4957204;28;20064;-84
2020/12/03 01:41:04;;;;;;;23.52;13.30;;;3.80;93.10;;;;;;4941987;28;20047;-83
2020/12/03 01:43:29;;;;;;;26.75;12.05;;;3.80;93.00;;;;;;4942740;28;20034;-84
2020/12/03 01:46:03;;;;;;;27.02;16.10;;;3.80;93.00;;;;;;4914947;28;20487;-84
2020/12/03 01:48:55;;;;;;;22.05;13.55;;;3.90;93.00;;;;;;4927558;28;20150;-84
2020/12/03 01:51:37;;;;;;;26.80;15.25;;;3.80;92.90;;;;;;4974372;28;20150;-84
2020/12/03 01:54:09;;;;;;;27.52;15.65;;;3.90;93.30;;;;;;4934647;28;20035;-84
2020/12/03 01:56:44;;;;;;;31.33;16.50;;;3.80;93.00;;;;;;4941110;28;20116;-84
2020/12/03 01:59:09;;;;;;;29.38;16.40;;;3.80;93.00;;;;;;4944221;28;20134;-84
2020/12/03 02:01:35;;;;;;;27.25;14.27;;;3.80;93.00;;;;;;4920927;28;20107;-84
2020/12/03 02:04:00;;;;;;;28.83;16.98;;;3.80;93.00;;;;;;4912275;28;20101;-84
2020/12/03 02:06:28;;;;;;;25.98;14.10;;;3.80;93.00;;;;;;4931766;28;20025;-84
2020/12/03 02:08:54;;;;;;;25.25;14.88;;;3.80;93.10;;;;;;4913487;28;20041;-84
2020/12/03 02:11:19;;;;;;;26.52;15.93;;;3.90;93.00;;;;;;4914143;28;20430;-84
2020/12/03 02:14:04;;;;;;;25.45;14.75;;;3.80;93.00;;;;;;4908551;28;20179;-84
2020/12/03 02:16:31;;;;;;;25.77;15.07;;;3.80;93.10;;;;;;4934495;28;20045;-84
2020/12/03 02:18:57;;;;;;;26.45;15.68;;;3.80;93.00;;;;;;4929920;28;20121;-84
2020/12/03 02:21:22;;;;;;;25.17;16.83;;;3.90;93.00;;;;;;4915643;28;20123;-84
2020/12/03 02:23:48;;;;;;;35.78;19.70;;;3.80;93.10;;;;;;4931418;28;20057;-85
2020/12/03 02:26:13;;;;;;;27.83;16.38;;;3.80;93.10;;;;;;4928579;28;20124;-84
2020/12/03 02:28:39;;;;;;;22.50;11.35;;;3.80;93.10;;;;;;4955698;28;20114;-84
2020/12/03 02:31:05;;;;;;;26.05;14.75;;;3.80;93.10;;;;;;4928383;28;20511;-84
2020/12/03 02:33:30;;;;;;;20.55;9.80;;;3.80;93.00;;;;;;4938343;28;20144;-84
2020/12/03 02:36:22;;;;;;;28.83;16.35;;;3.80;93.10;;;;;;4913162;28;20049;-84
2020/12/03 02:38:47;;;;;;;24.52;14.40;;;3.80;93.20;;;;;;4913446;28;20043;-84
2020/12/03 02:41:13;;;;;;;26.15;15.77;;;3.80;93.20;;;;;;4911461;29;20426;-84
2020/12/03 02:43:38;;;;;;;25.45;14.60;;;3.90;93.10;;;;;;4902778;29;20110;-84
2020/12/03 02:46:04;;;;;;;25.33;13.82;;;3.80;93.40;;;;;;4918288;29;20110;-84
2020/12/03 02:48:30;;;;;;;24.77;14.55;;;3.80;93.10;;;;;;4905120;29;21644;-84
2020/12/03 02:50:56;;;;;;;25.13;14.55;;;3.80;93.10;;;;;;4944376;28;20039;-84
2020/12/03 02:53:22;;;;;;;26.77;15.02;;;3.80;93.20;;;;;;4934900;28;20038;-84
2020/12/03 02:55:56;;;;;;;25.92;15.43;;;3.90;93.10;;;;;;4955435;28;20038;-84
2020/12/03 02:58:42;;;;;;;23.63;13.68;;;3.80;93.10;;;;;;4963175;28;20030;-83
2020/12/03 03:01:08;;;;;;;23.90;12.98;;;3.80;93.20;;;;;;4934090;28;20027;-84
2020/12/03 03:03:33;;;;;;;28.35;14.38;;;3.80;93.10;;;;;;4944740;28;20378;-84
2020/12/03 03:05:59;;;;;;;21.33;10.63;;;3.80;93.20;;;;;;4915664;28;20031;-84
2020/12/03 03:08:24;;;;;;;25.80;13.27;;;3.80;93.20;;;;;;4934366;28;20034;-84
2020/12/03 03:11:13;;;;;;;24.73;14.75;;;3.80;93.20;;;;;;4921153;28;20514;-84
2020/12/03 03:14:00;;;;;;;21.98;12.90;;;3.90;93.10;;;;;;4912543;29;20040;-83
2020/12/03 03:16:26;;;;;;;23.13;13.27;;;3.90;93.00;;;;;;4874672;29;20120;-84
2020/12/03 03:18:52;;;;;;;25.65;15.35;;;3.90;93.00;;;;;;4922066;28;20035;-84
2020/12/03 03:21:38;;;;;;;21.50;12.50;;;3.90;93.10;;;;;;4934838;28;20045;-83
2020/12/03 03:24:29;;;;;;;24.67;13.73;;;3.90;93.10;;;;;;4968579;28;20494;-83
2020/12/03 03:26:55;;;;;;;22.60;13.85;;;3.90;93.20;;;;;;4917799;28;20035;-83
2020/12/03 03:29:20;;;;;;;24.80;14.93;;;3.90;93.20;;;;;;4914877;28;20045;-82
2020/12/03 03:31:46;;;;;;;26.35;14.02;;;3.90;93.20;;;;;;4926635;28;20637;-82
2020/12/03 03:34:11;;;;;;;22.98;12.18;;;3.90;93.20;;;;;;4931292;28;20423;-82
2020/12/03 03:36:37;;;;;;;23.80;14.05;;;3.90;93.20;;;;;;4941745;28;20243;-82
2020/12/03 03:39:04;;;;;;;17.63;9.27;;;3.90;93.20;;;;;;4913702;28;20031;-82
2020/12/03 03:41:29;;;;;;;26.15;15.40;;;3.90;93.20;;;;;;4928050;28;20036;-83
2020/12/03 03:43:55;;;;;;;22.60;14.27;;;3.90;93.30;;;;;;4915196;28;20410;-84
2020/12/03 03:46:20;;;;;;;23.67;13.32;;;3.90;93.30;;;;;;4930698;28;20379;-83
2020/12/03 03:48:46;;;;;;;24.38;15.38;;;3.90;93.20;;;;;;4949718;28;20034;-84
2020/12/03 03:51:11;;;;;;;22.38;11.43;;;3.90;93.20;;;;;;4929692;29;20379;-83
2020/12/03 03:53:37;;;;;;;21.98;11.50;;;3.90;93.20;;;;;;4916627;28;20046;-82
2020/12/03 03:56:02;;;;;;;22.92;13.93;;;3.90;93.20;;;;;;4912465;28;20030;-83
2020/12/03 03:58:28;;;;;;;23.90;14.93;;;3.90;93.20;;;;;;4926035;28;20066;-83
2020/12/03 04:00:54;;;;;;;23.30;13.68;;;3.90;93.30;;;;;;4913642;28;20526;-84
2020/12/03 04:03:20;;;;;;;28.63;14.35;;;3.90;93.30;;;;;;4929838;28;20042;-83
2020/12/03 04:05:47;;;;;;;19.92;11.73;;;3.90;93.40;;;;;;4933097;28;20390;-83
2020/12/03 04:08:14;;;;;;;24.70;14.48;;;3.90;93.30;;;;;;4937772;28;20030;-83
2020/12/03 04:10:41;;;;;;;25.88;13.20;;;3.90;93.40;;;;;;4913721;28;20635;-84
2020/12/03 04:13:07;;;;;;;22.75;13.05;;;3.90;93.30;;;;;;4920746;28;20113;-84
2020/12/03 04:15:32;;;;;;;23.33;12.18;;;3.90;93.30;;;;;;4939623;28;20026;-84
2020/12/03 04:17:58;;;;;;;21.83;13.07;;;3.80;93.30;;;;;;4930196;28;20054;-84
2020/12/03 04:20:24;;;;;;;24.65;13.05;;;3.80;93.40;;;;;;4918368;28;20045;-84
2020/12/03 04:22:49;;;;;;;20.45;11.60;;;3.80;93.40;;;;;;4909269;28;20054;-83
2020/12/03 04:25:15;;;;;;;21.10;11.60;;;3.90;93.40;;;;;;4950707;28;20031;-83
2020/12/03 04:27:40;;;;;;;18.75;9.65;;;3.80;93.30;;;;;;4945361;28;20457;-83
2020/12/03 04:30:06;;;;;;;20.63;12.95;;;3.90;93.30;;;;;;4939813;28;20042;-83
2020/12/03 04:32:32;;;;;;;18.25;9.60;;;3.90;93.30;;;;;;4939981;28;20030;-83
2020/12/03 04:34:58;;;;;;;16.15;9.20;;;3.90;93.30;;;;;;4913595;28;20042;-83
2020/12/03 04:37:23;;;;;;;17.58;9.98;;;3.90;93.40;;;;;;4931220;28;20066;-83
2020/12/03 04:39:49;;;;;;;22.50;11.93;;;3.90;93.30;;;;;;4930010;28;20027;-83
2020/12/03 04:42:26;;;;;;;16.38;8.95;;;3.90;93.40;;;;;;4922489;28;20027;-83
2020/12/03 04:45:21;;;;;;;17.70;10.27;;;3.80;93.40;;;;;;4913934;28;20091;-83
2020/12/03 04:48:17;;;;;;;16.52;8.48;;;3.80;93.40;;;;;;4924577;28;20522;-84
2020/12/03 04:51:30;;;;;;;16.70;9.43;;;3.90;93.40;;;;;;4967744;28;20030;-83
2020/12/03 04:54:01;;;;;;;19.80;11.25;;;3.90;93.40;;;;;;4917879;28;20146;-83
2020/12/03 04:57:14;;;;;;;20.67;12.30;;;3.90;93.60;;;;;;4945848;28;20057;-83
2020/12/03 04:59:42;;;;;;;18.35;11.05;;;3.90;93.40;;;;;;4935644;28;20418;-82
2020/12/03 05:02:10;;;;;;;19.27;11.40;;;3.80;93.40;;;;;;4956456;28;20039;-83
2020/12/03 05:05:01;;;;;;;16.90;10.07;;;3.90;93.40;;;;;;4974374;28;20035;-83
2020/12/03 05:07:28;;;;;;;17.30;9.13;;;3.90;93.40;;;;;;4932897;28;20417;-84
2020/12/03 05:10:27;;;;;;;17.30;10.05;;;3.80;93.40;;;;;;4914494;28;20444;-83
2020/12/03 05:12:53;;;;;;;19.58;11.23;;;3.90;93.40;;;;;;4969092;28;20070;-84
2020/12/03 05:15:24;;;;;;;17.38;10.52;;;3.80;93.40;;;;;;4914217;28;20027;-84
2020/12/03 05:17:52;;;;;;;21.42;12.13;;;3.80;93.40;;;;;;4914683;28;20065;-83
2020/12/03 05:20:28;;;;;;;19.52;11.52;;;3.80;93.40;;;;;;4948308;28;20030;-84
2020/12/03 05:23:10;;;;;;;14.70;9.30;;;3.80;93.40;;;;;;4940448;28;20075;-83
2020/12/03 05:25:35;;;;;;;22.23;12.05;;;3.80;93.30;;;;;;4928039;28;20395;-84
2020/12/03 05:28:46;;;;;;;18.33;11.10;;;3.80;93.40;;;;;;4927733;28;20031;-83
2020/12/03 05:31:24;;;;;;;17.77;10.15;;;3.80;93.40;;;;;;4922411;28;20031;-84
2020/12/03 05:33:49;;;;;;;20.38;12.35;;;3.80;93.40;;;;;;4914591;28;20031;-84
2020/12/03 05:36:19;;;;;;;18.42;10.63;;;3.80;93.40;;;;;;4930936;28;20042;-83
2020/12/03 05:38:45;;;;;;;17.63;10.32;;;3.80;93.40;;;;;;4925810;28;20035;-83
2020/12/03 05:41:10;;;;;;;18.25;10.48;;;3.80;93.40;;;;;;4928233;28;20517;-84
2020/12/03 05:43:36;;;;;;;19.20;11.90;;;3.80;93.40;;;;;;4943382;28;20043;-84
2020/12/03 05:46:03;;;;;;;20.30;11.07;;;3.80;93.40;;;;;;4911519;28;20031;-85
2020/12/03 05:48:28;;;;;;;21.52;11.18;;;3.80;93.50;;;;;;4912088;28;20040;-84
2020/12/03 05:50:55;;;;;;;19.88;10.70;;;3.80;93.50;;;;;;4911578;28;20461;-85
2020/12/03 05:53:22;;;;;;;16.77;9.20;;;3.80;93.50;;;;;;4912961;28;20058;-85
2020/12/03 05:55:48;;;;;;;20.73;10.40;;;3.80;93.40;;;;;;4909397;28;20118;-85
2020/12/03 05:58:16;;;;;;;21.05;10.68;;;3.80;93.40;;;;;;4927096;28;20057;-85
2020/12/03 06:00:42;;;;;;;19.48;10.65;;;3.80;93.30;;;;;;4940189;28;20023;-85
2020/12/03 06:03:08;;;;;;;19.05;10.82;;;3.90;93.30;;;;;;4915506;28;20038;-85
2020/12/03 06:05:53;;;;;;;19.17;10.55;;;3.80;93.40;;;;;;4954016;28;20070;-84
2020/12/03 06:08:37;;;;;;;18.08;10.02;;;3.80;93.40;;;;;;4916084;28;20041;-85
2020/12/03 06:11:12;;;;;;;17.70;8.80;;;3.70;93.40;;;;;;4961906;28;20027;-85
2020/12/03 06:14:12;;;;;;;19.50;10.77;;;3.80;93.40;;;;;;4939340;28;20031;-84
2020/12/03 06:16:40;;;;;;;18.20;10.18;;;3.70;93.70;;;;;;4943570;28;20607;-85
2020/12/03 06:19:29;;;;;;;15.98;9.50;;;3.70;93.50;;;;;;4911964;28;20058;-84
2020/12/03 06:22:25;;;;;;;17.35;8.02;;;3.80;93.40;;;;;;4928824;28;20035;-84
2020/12/03 06:25:21;;;;;;;19.63;11.37;;;3.80;93.40;;;;;;4974363;28;20503;-84
2020/12/03 06:27:46;;;;;;;9.63;5.55;;;3.70;93.70;;;;;;4945961;28;20403;-84
2020/12/03 06:30:26;;;;;;;16.85;10.23;;;3.80;93.40;;;;;;4947906;28;20034;-84
2020/12/03 06:33:10;;;;;;;15.38;8.82;;;3.90;93.40;;;;;;4958730;28;20376;-83
2020/12/03 06:36:03;;;;;;;21.73;10.57;;;3.80;93.40;;;;;;4969433;28;20089;-85
2020/12/03 06:38:42;;;;;;;20.15;7.32;;;3.70;93.30;;;;;;4934380;28;20038;-85
2020/12/03 06:41:26;;;;;;;13.88;7.50;;;3.80;93.30;;;;;;4919584;28;20394;-84
2020/12/03 06:44:16;;;;;;;21.27;12.75;;;3.70;93.40;;;;;;4947484;28;20235;-83
2020/12/03 06:47:02;;;;;;;16.70;10.27;;;3.80;93.40;;;;;;4936817;28;20042;-83
2020/12/03 06:49:48;;;;;;;16.55;8.18;;;3.80;93.30;;;;;;4947996;28;20031;-84
2020/12/03 06:52:20;;;;;;;17.33;9.77;;;3.80;93.30;;;;;;4924628;28;20046;-84
2020/12/03 06:55:09;;;;;;;23.13;9.88;;;3.70;93.30;;;;;;4968605;28;20398;-83
2020/12/03 06:57:45;;;;;;;18.10;9.38;;;3.70;93.30;;;;;;4961440;28;20054;-83
2020/12/03 07:00:29;;;;;;;16.98;9.38;;;3.70;93.40;;;;;;4940522;28;20150;-83
2020/12/03 07:03:16;;;;;;;19.73;10.48;;;3.70;93.30;;;;;;4949423;28;20055;-82
2020/12/03 07:06:14;;;;;;;11.88;6.55;;;3.70;93.40;;;;;;4928688;28;20166;-83
2020/12/03 07:08:58;;;;;;;16.55;9.63;;;3.70;93.40;;;;;;4930496;28;20360;-83
2020/12/03 07:11:51;;;;;;;16.17;9.55;;;3.70;93.30;;;;;;4935142;28;20119;-83
2020/12/03 07:14:38;;;;;;;18.40;10.38;;;3.80;93.30;;;;;;4976527;28;20114;-83
2020/12/03 07:17:34;;;;;;;16.27;9.35;;;3.80;93.30;;;;;;4952028;28;20030;-83
2020/12/03 07:20:11;;;;;;;17.10;9.50;;;3.70;93.30;;;;;;4967676;28;20031;-82
2020/12/03 07:22:44;;;;;;;17.15;9.45;;;3.80;93.20;;;;;;4970790;28;20325;-82
2020/12/03 07:25:09;;;;;;;18.98;9.85;;;3.90;93.30;;;;;;4936410;28;20042;-82
2020/12/03 07:27:43;;;;;;;17.48;9.13;;;3.80;93.30;;;;;;4926379;28;20035;-82
2020/12/03 07:30:09;;;;;;;16.45;9.45;;;3.80;93.20;;;;;;4946174;28;20041;-82
2020/12/03 07:36:01;;;;;;;17.17;9.23;;;3.80;93.10;;;;;;4956813;28;20386;-82
2020/12/03 07:38:37;;;;;;;16.48;10.10;;;3.80;93.20;;;;;;4950408;28;20042;-82
2020/12/03 07:41:02;;;;;;;18.63;9.57;;;3.80;93.20;;;;;;4930288;28;20031;-82
2020/12/03 07:43:34;;;;;;;17.30;10.52;;;3.80;93.10;;;;;;4929965;28;20155;-82
2020/12/03 07:46:00;;;;;;;16.70;9.25;;;3.80;93.20;;;;;;4929486;28;20035;-82
2020/12/03 07:48:31;;;;;;;13.93;8.73;;;3.80;93.00;;;;;;4917317;28;20030;-82
2020/12/03 07:51:02;;;;;;;17.80;8.40;;;3.80;93.00;;;;;;4956300;28;20031;-83
2020/12/03 07:53:32;;;;;;;19.95;11.45;;;3.90;93.10;;;;;;4944438;28;20369;-82
2020/12/03 07:55:57;;;;;;;11.38;5.75;;;3.90;93.00;;;;;;4931192;28;20046;-83
2020/12/03 07:58:30;;;;;;;16.02;9.23;;;3.90;93.10;;;;;;4917691;28;20031;-83
2020/12/03 08:00:56;;;;;;;14.27;7.18;;;3.90;93.10;;;;;;4956797;28;20023;-82
2020/12/03 08:03:46;;;;;;;16.48;9.85;;;3.90;93.10;;;;;;4916878;28;20593;-82
2020/12/03 08:06:24;;;;;;;17.73;10.27;;;3.90;93.10;;;;;;4951948;28;20023;-83
2020/12/03 08:08:59;;;;;;;14.98;9.00;;;3.90;93.10;;;;;;4967163;28;20039;-83
2020/12/03 08:11:44;;;;;;;19.08;10.68;;;3.90;93.00;;;;;;4960980;28;20037;-82
2020/12/03 08:14:28;;;;;;;19.60;8.80;;;3.90;93.00;;;;;;4943976;28;20034;-82
2020/12/03 08:16:54;;;;;;;8.95;4.85;;;3.80;93.10;;;;;;4934626;28;20027;-82
2020/12/03 08:19:36;;;;;;;16.70;9.23;;;3.90;93.10;;;;;;4916732;28;20089;-83
2020/12/03 08:22:03;;;;;;;16.70;8.65;;;3.80;93.10;;;;;;4940346;28;20062;-83
2020/12/03 08:24:33;;;;;;;23.80;13.55;;;3.80;93.10;;;;;;4912532;28;20030;-83
2020/12/03 08:27:02;;;;;;;17.77;9.68;;;3.80;93.10;;;;;;4913737;28;20090;-82
2020/12/03 08:29:37;;;;;;;16.98;8.75;;;3.90;93.10;;;;;;4931970;28;20089;-82
2020/12/03 08:32:02;;;;;;;17.75;10.18;;;3.90;93.10;;;;;;4943211;28;20031;-83
2020/12/03 08:34:38;;;;;;;12.95;5.57;;;3.90;93.10;;;;;;4942333;28;20541;-82
2020/12/03 08:37:04;;;;;;;14.48;8.77;;;3.90;93.10;;;;;;4929018;28;20047;-82
2020/12/03 08:39:31;;;;;;;16.00;9.25;;;3.80;93.10;;;;;;4924701;28;20035;-82
2020/12/03 08:41:56;;;;;;;16.67;7.75;;;3.80;93.10;;;;;;4942284;28;20031;-82
2020/12/03 08:44:23;;;;;;;20.98;9.65;;;3.80;93.10;;;;;;4930243;28;20395;-83
2020/12/03 08:46:50;;;;;;;11.60;6.15;;;3.80;93.00;;;;;;4937054;28;20111;-82
2020/12/03 08:49:24;;;;;;;18.35;11.15;;;3.80;93.00;;;;;;4936645;28;20035;-82
2020/12/03 08:51:51;;;;;;;13.98;8.38;;;3.80;93.00;;;;;;4938058;28;20039;-83
2020/12/03 08:54:23;;;;;;;11.35;6.50;;;3.80;93.10;;;;;;4922019;28;20463;-82
2020/12/03 08:56:49;;;;;;;13.90;8.73;;;3.80;93.10;;;;;;4936573;28;20513;-82
2020/12/03 08:59:18;;;;;;;8.90;4.72;;;3.80;93.00;;;;;;4951306;28;20042;-82
2020/12/03 09:01:46;;;;;;;16.33;7.20;;;3.80;93.10;;;;;;4940102;28;20501;-83
2020/12/03 09:04:21;;;;;;;17.45;9.25;;;3.80;93.10;;;;;;4935697;28;20043;-83
2020/12/03 09:06:48;;;;;;;17.77;9.50;;;3.80;93.00;;;;;;4949823;28;20036;-82
2020/12/03 09:09:21;;;;;;;17.33;10.15;;;3.80;93.10;;;;;;4952877;28;20114;-82
2020/12/03 09:11:46;;;;;;;17.48;10.15;;;3.80;93.10;;;;;;4909938;28;20543;-82
2020/12/03 09:14:12;;;;;;;19.83;10.10;;;3.80;93.10;;;;;;4955707;28;20364;-82
2020/12/03 09:16:37;;;;;;;19.25;9.77;;;3.80;93.10;;;;;;4953963;28;20065;-83
2020/12/03 09:19:03;;;;;;;16.67;9.75;;;3.90;93.10;;;;;;4910762;28;20058;-83
2020/12/03 09:21:29;;;;;;;16.30;7.65;;;3.90;93.10;;;;;;4914855;28;20072;-83
2020/12/03 09:23:56;;;;;;;13.73;8.98;;;3.90;93.00;;;;;;4937700;28;20105;-82
2020/12/03 09:26:26;;;;;;;15.23;8.63;;;3.90;93.00;;;;;;4913589;28;20495;-82
2020/12/03 09:28:52;;;;;;;12.90;7.28;;;3.90;93.00;;;;;;4941751;28;20039;-83
2020/12/03 09:31:18;;;;;;;13.52;8.02;;;3.90;93.10;;;;;;4935665;28;20031;-82
2020/12/03 09:33:44;;;;;;;18.08;9.23;;;3.90;92.90;;;;;;4937837;28;20547;-82
2020/12/03 09:36:10;;;;;;;18.38;9.93;;;3.90;93.00;;;;;;4927510;28;20067;-83
2020/12/03 09:38:36;;;;;;;16.95;8.70;;;3.90;93.00;;;;;;4949568;28;20368;-82
2020/12/03 09:41:01;;;;;;;16.98;9.32;;;4.00;93.00;;;;;;4908533;28;20348;-82
2020/12/03 09:43:27;;;;;;;16.48;9.80;;;4.00;92.90;;;;;;4913940;28;20045;-82
2020/12/03 09:45:55;;;;;;;14.85;7.90;;;4.00;92.90;;;;;;4913566;28;20408;-82
2020/12/03 09:48:21;;;;;;;14.55;8.13;;;4.10;92.80;;;;;;4911737;28;20034;-82
2020/12/03 09:50:49;;;;;;;11.27;6.28;;;4.00;92.80;;;;;;4916380;28;20038;-82
2020/12/03 09:53:19;;;;;;;14.38;8.23;;;4.10;92.90;;;;;;4953788;28;20033;-82
2020/12/03 09:55:44;;;;;;;9.88;5.72;;;4.00;92.80;;;;;;4939954;28;20042;-82
2020/12/03 09:58:10;;;;;;;12.57;7.40;;;4.10;92.90;;;;;;4951834;28;20031;-82
2020/12/03 10:00:39;;;;;;;12.63;6.72;;;4.10;92.90;;;;;;4937681;28;20054;-82
2020/12/03 10:03:21;;;;;;;14.40;9.02;;;4.10;92.90;;;;;;4929257;28;20110;-82
2020/12/03 10:06:10;;;;;;;15.27;10.00;;;4.10;92.90;;;;;;4929651;28;20523;-82
2020/12/03 10:08:50;;;;;;;10.90;4.78;;;4.10;93.00;;;;;;4912895;28;20058;-83
2020/12/03 10:11:28;;;;;;;14.55;8.40;;;4.20;92.80;;;;;;4942763;28;20042;-82
2020/12/03 10:14:12;;;;;;;19.08;10.48;;;4.20;92.80;;;;;;4944419;28;20039;-83
2020/12/03 10:16:39;;;;;;;15.00;7.80;;;4.30;92.80;;;;;;4945564;28;20070;-82
2020/12/03 10:19:05;;;;;;;17.35;8.88;;;4.40;92.90;;;;;;4925194;28;20114;-84
2020/12/03 10:21:35;;;;;;;12.00;6.47;;;4.40;92.80;;;;;;4924674;28;20118;-84
2020/12/03 10:24:01;;;;;;;14.38;8.65;;;4.40;92.60;;;;;;4942982;28;20340;-84
2020/12/03 10:27:04;;;;;;;14.82;8.07;;;4.50;92.60;;;;;;4927991;28;20038;-83
2020/12/03 10:29:34;;;;;;;10.65;6.80;;;4.50;92.60;;;;;;4939304;28;20035;-83
2020/12/03 10:32:00;;;;;;;10.90;6.03;;;4.60;92.70;;;;;;4971196;28;20096;-82
2020/12/03 10:34:27;;;;;;;13.57;7.32;;;4.60;92.50;;;;;;4929511;28;20084;-81
2020/12/03 10:37:03;;;;;;;9.57;5.32;;;4.60;92.50;;;;;;4927788;28;20038;-82
2020/12/03 10:39:38;;;;;;;18.33;6.35;;;4.70;92.50;;;;;;4919120;28;20035;-82
2020/12/03 10:42:06;;;;;;;13.30;6.88;;;4.70;92.50;;;;;;4936645;28;20042;-81
2020/12/03 10:44:32;;;;;;;11.70;6.78;;;4.70;92.40;;;;;;4939591;28;20042;-81
2020/12/03 10:47:06;;;;;;;12.10;6.50;;;4.80;92.50;;;;;;4912941;28;20030;-81
2020/12/03 10:49:34;;;;;;;16.23;8.13;;;4.80;92.40;;;;;;4924912;28;20043;-81
2020/12/03 10:52:01;;;;;;;11.88;8.05;;;4.70;92.20;;;;;;4952475;28;20259;-82
2020/12/03 10:54:26;;;;;;;12.63;7.13;;;4.80;92.30;;;;;;4925860;28;20129;-81
2020/12/03 10:56:52;;;;;;;11.93;6.88;;;4.80;92.30;;;;;;4911092;28;20118;-81
2020/12/03 10:59:22;;;;;;;13.43;6.10;;;4.80;92.20;;;;;;4916265;28;20047;-81
2020/12/03 11:01:54;;;;;;;7.07;4.55;;;4.90;92.30;;;;;;4968326;28;20133;-81
2020/12/03 11:04:20;;;;;;;10.07;5.60;;;4.90;92.20;;;;;;4953451;28;20039;-81
2020/12/03 11:06:45;;;;;;;15.18;8.45;;;5.10;92.70;;;;;;4935721;28;20255;-81
2020/12/03 11:09:17;;;;;;;6.13;3.67;;;5.20;92.40;;;;;;4944884;28;20035;-81
2020/12/03 11:11:43;;;;;;;14.60;7.60;;;5.30;92.30;;;;;;4942566;28;20037;-81
2020/12/03 11:14:12;;;;;;;14.45;8.55;;;5.40;92.70;;;;;;4936977;28;20035;-81
2020/12/03 11:16:42;;;;;;;13.02;8.52;;;5.50;92.40;;;;;;4943548;28;20133;-82
2020/12/03 11:19:09;;;;;;;12.73;7.47;;;5.50;92.30;;;;;;4928049;28;20074;-82
2020/12/03 11:21:35;;;;;;;10.82;6.40;;;5.60;92.20;;;;;;4954706;28;20038;-82
2020/12/03 11:24:19;;;;;;;17.60;7.50;;;5.60;92.30;;;;;;4929613;28;20125;-82
2020/12/03 11:26:45;;;;;;;13.93;7.07;;;5.70;92.10;;;;;;4942333;28;20039;-82
2020/12/03 11:29:12;;;;;;;11.63;6.55;;;5.80;92.10;;;;;;4931260;28;20043;-82
2020/12/03 11:31:37;;;;;;;12.70;8.40;;;5.80;91.90;;;;;;4952483;28;20026;-82
2020/12/03 11:34:03;;;;;;;12.57;7.95;;;5.70;92.10;;;;;;4929269;28;20057;-82
2020/12/03 11:36:43;;;;;;;14.13;8.48;;;5.90;92.20;;;;;;4937895;28;20093;-82
2020/12/03 11:39:09;;;;;;;12.07;7.40;;;6.00;92.00;;;;;;4935014;28;20069;-82
2020/12/03 11:49:06;;;;;;;13.95;7.30;;;6.00;91.70;;;;;;4929341;28;20556;-82
2020/12/03 11:51:33;;;;;;;14.07;7.45;;;6.00;91.80;;;;;;4926459;28;20027;-81
2020/12/03 11:54:00;;;;;;;15.45;8.07;;;6.00;91.80;;;;;;4943589;28;20031;-82
2020/12/03 11:56:28;;;;;;;11.63;7.10;;;6.10;91.80;;;;;;4934414;28;20042;-81
2020/12/03 11:59:10;;;;;;;10.82;6.57;;;6.00;91.70;;;;;;4925148;28;20380;-81
2020/12/03 12:01:35;;;;;;;6.75;4.18;;;6.10;91.60;;;;;;4935442;28;20081;-82
2020/12/03 12:04:01;;;;;;;11.40;7.57;;;6.10;91.80;;;;;;4914309;28;20121;-82
2020/12/03 12:06:31;;;;;;;12.40;6.63;;;6.00;91.40;;;;;;4952955;28;20449;-82
2020/12/03 12:09:21;;;;;;;7.82;4.50;;;6.00;91.60;;;;;;4930038;28;20023;-82
2020/12/03 12:11:47;;;;;;;7.93;4.82;;;6.00;91.50;;;;;;4926563;28;20462;-82
2020/12/03 12:14:13;;;;;;;11.25;6.00;;;6.00;91.30;;;;;;4937687;28;20023;-82
2020/12/03 12:16:38;;;;;;;12.90;6.38;;;5.90;91.00;;;;;;4937915;28;20085;-81
2020/12/03 12:19:05;;;;;;;13.57;7.30;;;5.90;91.20;;;;;;4907638;28;20031;-81
2020/12/03 12:21:33;;;;;;;14.60;7.10;;;5.80;91.00;;;;;;4926894;28;20039;-81
2020/12/03 12:23:58;;;;;;;11.38;6.10;;;5.80;91.00;;;;;;4925440;28;20035;-81
2020/12/03 12:26:24;;;;;;;13.95;6.32;;;5.80;90.90;;;;;;4913607;28;20479;-80
2020/12/03 12:28:49;;;;;;;13.63;7.88;;;5.80;91.10;;;;;;4954963;28;20093;-81
2020/12/03 12:31:16;;;;;;;12.20;7.32;;;5.80;90.90;;;;;;4942648;28;20053;-80
2020/12/03 12:33:41;;;;;;;13.15;6.57;;;5.70;91.00;;;;;;4942074;28;20031;-80
2020/12/03 12:36:07;;;;;;;9.70;4.95;;;5.70;90.80;;;;;;4952336;28;20038;-80
2020/12/03 12:38:33;;;;;;;9.07;5.43;;;5.70;90.80;;;;;;4915670;28;20118;-80
2020/12/03 12:40:58;;;;;;;11.82;6.97;;;5.70;90.80;;;;;;4926593;28;20031;-80
2020/12/03 12:43:24;;;;;;;11.43;5.53;;;5.70;90.70;;;;;;4915877;28;20058;-80
2020/12/03 12:45:49;;;;;;;12.00;7.03;;;5.70;90.70;;;;;;4961244;28;20045;-80
2020/12/03 12:48:15;;;;;;;8.98;5.00;;;5.80;90.50;;;;;;4934951;28;20055;-80
2020/12/03 12:50:40;;;;;;;13.20;7.28;;;5.80;90.70;;;;;;4955164;28;20118;-80
2020/12/03 12:53:06;;;;;;;6.43;4.28;;;5.80;90.60;;;;;;4929560;28;20038;-79
2020/12/03 12:55:33;;;;;;;10.80;6.25;;;5.90;90.80;;;;;;4938871;28;20027;-81
2020/12/03 12:57:58;;;;;;;9.45;5.57;;;5.80;90.70;;;;;;4925446;28;20031;-80
2020/12/03 13:00:24;;;;;;;14.75;6.45;;;5.80;90.50;;;;;;4922065;28;20031;-80
2020/12/03 13:02:49;;;;;;;9.68;5.15;;;5.70;90.50;;;;;;4936662;28;20471;-81
2020/12/03 13:05:15;;;;;;;9.07;4.72;;;5.80;90.80;;;;;;4928945;28;20510;-81
2020/12/03 13:07:40;;;;;;;12.68;6.43;;;5.80;90.70;;;;;;4948094;28;20093;-80
2020/12/03 13:10:06;;;;;;;6.15;4.22;;;5.70;90.70;;;;;;4926634;28;20670;-80
2020/12/03 13:12:32;;;;;;;10.07;3.25;;;5.70;90.40;;;;;;4955019;28;20034;-80